Time;durP1;ratioP1;P1;durP2;ratioP2;P2;SDS_P1;SDS_P2;PMS_P1;PMS_P2;Temp;Humidity;BMP_temperature;BMP_pressure;BME280_temperature;BME280_humidity;BME280_pressure;Samples;Min_cycle;Max_cycle;Signal;HPM_P1;HPM_P2
2023/06/28 00:01:53;;;;;;;8.95;6.68;;;;;;;28.11;56.47;100712.19;4898470;29;20052;-57
2023/06/28 00:04:20;;;;;;;7.15;6.45;;;;;;;28.13;56.15;100717.44;4898390;29;20048;-49
2023/06/28 00:06:48;;;;;;;6.78;6.15;;;;;;;28.13;56.55;100718.28;4898225;29;20397;-51
2023/06/28 00:09:15;;;;;;;8.63;6.72;;;;;;;28.14;56.33;100708.25;4898151;29;20048;-49
2023/06/28 00:11:44;;;;;;;7.65;5.93;;;;;;;28.15;56.23;100715.34;4898291;29;20405;-48
2023/06/28 00:14:11;;;;;;;9.07;6.90;;;;;;;28.15;56.08;100707.19;4898339;29;20055;-50
2023/06/28 00:16:39;;;;;;;8.25;6.38;;;;;;;28.15;56.32;100718.09;4896818;29;20420;-57
2023/06/28 00:19:06;;;;;;;8.63;6.10;;;;;;;28.16;56.33;100719.78;4898249;29;20045;-57
2023/06/28 00:21:34;;;;;;;7.53;6.13;;;;;;;28.16;56.37;100717.91;4898173;29;20048;-58
2023/06/28 00:24:01;;;;;;;6.60;5.68;;;;;;;28.17;56.11;100713.31;4898191;29;20048;-58
2023/06/28 00:26:29;;;;;;;6.72;6.00;;;;;;;28.17;55.96;100716.03;4898323;29;20052;-49
2023/06/28 00:28:56;;;;;;;6.00;5.28;;;;;;;28.19;56.06;100724.81;4898143;29;20044;-50
2023/06/28 00:31:24;;;;;;;9.55;5.95;;;;;;;28.18;55.95;100714.97;4898103;29;20500;-50
2023/06/28 00:33:52;;;;;;;7.53;5.90;;;;;;;28.18;55.98;100713.09;4898164;29;20048;-49
2023/06/28 00:36:19;;;;;;;6.65;5.38;;;;;;;28.18;56.34;100710.38;4927912;29;20075;-52
2023/06/28 00:38:46;;;;;;;8.90;5.63;;;;;;;28.19;56.20;100717.50;4898172;29;20049;-49
2023/06/28 00:41:14;;;;;;;7.43;5.45;;;;;;;28.20;55.93;100719.22;4927985;29;20401;-49
2023/06/28 00:43:41;;;;;;;6.57;5.28;;;;;;;28.20;55.91;100716.50;4898070;29;20052;-49
2023/06/28 00:46:09;;;;;;;8.65;5.72;;;;;;;28.20;55.99;100713.75;4901451;29;20048;-49
2023/06/28 00:48:40;;;;;;;6.53;5.65;;;;;;;28.22;55.78;100710.84;4902423;29;20052;-50
2023/06/28 00:51:09;;;;;;;9.23;6.53;;;;;;;28.21;56.04;100715.44;4901357;29;20485;-50
2023/06/28 00:53:37;;;;;;;8.15;6.03;;;;;;;28.23;55.80;100712.50;4901567;29;20049;-50
2023/06/28 00:56:04;;;;;;;6.57;5.60;;;;;;;28.23;56.27;100704.34;4901544;29;20064;-49
2023/06/28 00:58:32;;;;;;;6.97;5.65;;;;;;;28.22;56.24;100714.41;4901516;29;20056;-49
2023/06/28 01:01:00;;;;;;;7.32;5.65;;;;;;;28.22;56.25;100719.00;4901462;29;20067;-51
2023/06/28 01:03:27;;;;;;;7.78;6.15;;;;;;;28.23;55.78;100716.06;4901465;29;20053;-49
2023/06/28 01:05:57;;;;;;;6.15;5.22;;;;;;;28.24;55.75;100722.38;4901133;29;20060;-57
2023/06/28 01:08:26;;;;;;;7.60;5.50;;;;;;;28.25;55.87;100724.06;4901401;29;20059;-58
2023/06/28 01:10:54;;;;;;;7.43;6.07;;;;;;;28.25;55.84;100724.91;4899841;29;20049;-57
2023/06/28 01:13:22;;;;;;;8.43;6.03;;;;;;;28.25;56.19;100724.06;4931525;29;20056;-57
2023/06/28 01:15:49;;;;;;;7.68;5.80;;;;;;;28.27;56.25;100735.59;4899670;29;20053;-50
2023/06/28 01:18:19;;;;;;;7.22;5.85;;;;;;;28.26;56.03;100729.31;4901272;29;20492;-49
2023/06/28 01:20:49;;;;;;;5.95;5.15;;;;;;;28.26;56.15;100737.47;4901019;29;20049;-51
2023/06/28 01:23:17;;;;;;;9.57;6.68;;;;;;;28.26;56.00;100737.47;4931288;29;20412;-52
2023/06/28 01:25:44;;;;;;;8.27;5.03;;;;;;;28.27;56.19;100741.03;4901047;29;20048;-51
2023/06/28 01:28:13;;;;;;;6.60;4.60;;;;;;;28.27;55.73;100746.47;4899708;29;20052;-50
2023/06/28 01:30:41;;;;;;;6.75;5.03;;;;;;;28.27;55.86;100741.03;4901016;29;20504;-57
2023/06/28 01:33:09;;;;;;;6.20;4.97;;;;;;;28.27;55.98;100743.75;4930922;29;20052;-58
2023/06/28 01:35:36;;;;;;;7.13;6.00;;;;;;;28.27;56.07;100743.75;4900798;29;20052;-57
2023/06/28 01:38:04;;;;;;;8.18;5.75;;;;;;;28.27;55.72;100733.72;4900842;29;20052;-58
2023/06/28 01:40:35;;;;;;;7.95;5.45;;;;;;;28.28;56.06;100740.03;4900789;29;20049;-58
2023/06/28 01:43:07;;;;;;;6.72;5.57;;;;;;;28.29;56.02;100737.09;4900802;29;20515;-58
2023/06/28 01:45:35;;;;;;;6.80;5.45;;;;;;;28.28;55.61;100726.41;4899402;29;20509;-58
2023/06/28 01:48:04;;;;;;;6.95;5.00;;;;;;;28.29;55.97;100741.69;4900675;29;20068;-58
2023/06/28 01:50:32;;;;;;;7.93;5.65;;;;;;;28.28;55.97;100743.59;4930921;29;20374;-58
2023/06/28 01:53:03;;;;;;;7.75;4.80;;;;;;;28.29;55.80;100739.81;4900505;29;20052;-58
2023/06/28 01:55:30;;;;;;;8.00;5.43;;;;;;;28.29;55.79;100738.97;4900039;29;20469;-50
2023/06/28 01:57:57;;;;;;;6.47;5.03;;;;;;;28.29;55.63;100728.94;4898605;29;20394;-50
2023/06/28 02:00:25;;;;;;;7.35;5.43;;;;;;;28.29;55.70;100736.25;4899059;29;20057;-51
2023/06/28 02:02:53;;;;;;;6.45;4.22;;;;;;;28.28;55.96;100735.41;4900427;29;20044;-49
2023/06/28 02:05:21;;;;;;;8.02;5.60;;;;;;;28.29;56.02;100731.66;4899070;29;20061;-58
2023/06/28 02:07:49;;;;;;;7.05;4.95;;;;;;;28.28;55.73;100740.03;4900385;29;20055;-59
2023/06/28 02:10:20;;;;;;;6.50;5.40;;;;;;;28.29;55.93;100737.09;4900200;29;20063;-58
2023/06/28 02:12:47;;;;;;;5.28;4.47;;;;;;;28.29;56.17;100739.81;4898753;29;20060;-58
2023/06/28 02:15:15;;;;;;;7.35;5.57;;;;;;;28.30;56.06;100738.78;4898585;29;20072;-61
2023/06/28 02:17:44;;;;;;;4.90;4.40;;;;;;;28.30;55.88;100735.22;4900077;29;20049;-62
2023/06/28 02:20:12;;;;;;;6.50;5.03;;;;;;;28.30;56.05;100732.50;4900054;29;20397;-62
2023/06/28 02:22:40;;;;;;;5.53;4.55;;;;;;;28.28;56.36;100737.31;4898582;29;20398;-61
2023/06/28 02:25:08;;;;;;;7.03;5.03;;;;;;;28.27;56.66;100739.16;4898530;29;20048;-61
2023/06/28 02:27:35;;;;;;;6.28;4.68;;;;;;;28.25;56.21;100732.22;4899874;29;20052;-62
2023/06/28 02:30:03;;;;;;;7.22;4.57;;;;;;;28.24;56.23;100731.41;4899689;29;20055;-62
2023/06/28 02:32:30;;;;;;;6.57;4.82;;;;;;;28.25;56.58;100726.78;4899942;29;20521;-62
2023/06/28 02:34:58;;;;;;;5.50;4.60;;;;;;;28.23;57.05;100731.56;4899959;29;20428;-61
2023/06/28 02:37:25;;;;;;;6.80;4.75;;;;;;;28.20;56.93;100730.09;4899881;29;20064;-62
2023/06/28 02:39:53;;;;;;;5.38;4.40;;;;;;;28.17;56.63;100725.03;4899867;29;20385;-62
2023/06/28 02:42:20;;;;;;;8.30;4.90;;;;;;;28.15;56.91;100726.25;4899797;29;20045;-62
2023/06/28 02:44:49;;;;;;;6.43;4.60;;;;;;;28.16;56.65;100730.69;4899903;29;20056;-58
2023/06/28 02:47:16;;;;;;;6.80;4.07;;;;;;;28.14;56.89;100728.13;4898117;29;20083;-59
2023/06/28 02:49:44;;;;;;;6.35;4.20;;;;;;;28.16;56.63;100736.13;4899539;29;20048;-59
2023/06/28 02:52:11;;;;;;;6.30;4.28;;;;;;;28.16;56.97;100738.84;4929613;29;20413;-58
2023/06/28 02:54:39;;;;;;;6.55;4.15;;;;;;;28.16;56.93;100744.28;4897985;29;20049;-61
2023/06/28 02:57:08;;;;;;;6.78;4.70;;;;;;;28.15;56.95;100732.53;4898090;29;20056;-61
2023/06/28 02:59:38;;;;;;;5.00;3.60;;;;;;;28.16;56.66;100736.97;4905773;29;20056;-62
2023/06/28 03:02:06;;;;;;;6.18;4.05;;;;;;;28.17;56.81;100740.53;4929448;29;20052;-62
2023/06/28 03:04:39;;;;;;;7.28;3.90;;;;;;;28.15;56.56;100743.41;4898082;29;20052;-61
2023/06/28 03:07:16;;;;;;;8.13;4.85;;;;;;;28.16;57.04;100752.47;4929190;29;20056;-61
2023/06/28 03:09:44;;;;;;;5.25;3.70;;;;;;;28.13;56.90;100747.38;4929439;29;20056;-61
2023/06/28 03:12:11;;;;;;;4.97;3.50;;;;;;;28.13;56.63;100744.66;4929306;29;20080;-61
2023/06/28 03:14:51;;;;;;;5.72;3.70;;;;;;;28.11;56.64;100742.13;4898452;29;20389;-59
2023/06/28 03:17:25;;;;;;;5.68;3.58;;;;;;;28.08;56.78;100742.53;4912385;29;20052;-58
2023/06/28 03:19:53;;;;;;;8.57;4.07;;;;;;;28.08;56.53;100746.09;4897649;29;20075;-58
2023/06/28 03:22:20;;;;;;;5.22;4.00;;;;;;;28.09;56.79;100750.50;4898818;29;20420;-58
2023/06/28 03:24:48;;;;;;;4.75;3.28;;;;;;;28.08;56.66;100754.25;4897243;29;20409;-58
2023/06/28 03:27:15;;;;;;;5.90;3.47;;;;;;;28.07;56.61;100751.69;4897583;29;20060;-58
2023/06/28 03:29:43;;;;;;;4.43;3.38;;;;;;;28.05;56.33;100753.78;4897526;29;20044;-58
2023/06/28 03:32:10;;;;;;;4.18;3.00;;;;;;;28.06;56.37;100760.91;4898832;29;20055;-58
2023/06/28 03:34:38;;;;;;;4.68;3.25;;;;;;;28.06;56.80;100753.59;4898871;29;20048;-59
2023/06/28 03:37:07;;;;;;;4.53;3.00;;;;;;;28.09;56.30;100764.09;4897294;29;20519;-58
2023/06/28 03:39:34;;;;;;;5.63;3.25;;;;;;;28.10;56.70;100763.06;4897343;29;20053;-58
2023/06/28 03:42:02;;;;;;;3.72;3.15;;;;;;;28.11;56.28;100766.63;4897236;29;20055;-58
2023/06/28 03:44:29;;;;;;;4.45;3.03;;;;;;;28.13;56.80;100766.44;4898712;29;20508;-59
2023/06/28 03:46:57;;;;;;;7.00;3.22;;;;;;;28.12;56.38;100759.31;4898613;29;20437;-59
2023/06/28 03:49:24;;;;;;;6.55;2.75;;;;;;;28.11;56.26;100761.16;4898634;29;20049;-58
2023/06/28 03:51:51;;;;;;;4.55;2.92;;;;;;;28.12;56.64;100759.31;4898590;29;20059;-58
2023/06/28 03:54:19;;;;;;;4.50;3.00;;;;;;;28.11;56.18;100758.44;4898673;29;20059;-60
2023/06/28 03:56:49;;;;;;;3.40;2.40;;;;;;;28.12;56.04;100756.59;4898560;29;20044;-58
2023/06/28 03:59:16;;;;;;;5.90;3.08;;;;;;;28.10;56.04;100752.16;4928496;29;20075;-58
2023/06/28 04:01:44;;;;;;;4.95;2.90;;;;;;;28.09;56.15;100761.38;4898530;29;20389;-58
2023/06/28 04:04:15;;;;;;;4.63;2.92;;;;;;;28.09;56.20;100750.50;4898570;29;20060;-58
2023/06/28 04:06:43;;;;;;;5.60;2.63;;;;;;;28.10;56.21;100741.28;4898577;29;20516;-61
2023/06/28 04:09:10;;;;;;;4.10;2.97;;;;;;;28.12;56.42;100748.44;4899157;29;20053;-62
2023/06/28 04:11:38;;;;;;;4.13;2.83;;;;;;;28.12;56.12;100753.88;4898313;29;20049;-61
2023/06/28 04:14:05;;;;;;;5.22;3.33;;;;;;;28.12;56.63;100752.00;4898763;29;20057;-62
2023/06/28 04:16:32;;;;;;;4.13;2.60;;;;;;;28.12;56.51;100752.00;4898207;29;20072;-58
2023/06/28 04:19:00;;;;;;;3.78;2.58;;;;;;;28.12;56.53;100748.44;4898473;29;20048;-58
2023/06/28 04:21:27;;;;;;;4.25;2.85;;;;;;;28.13;56.00;100752.84;4902250;29;20056;-58
2023/06/28 04:23:57;;;;;;;4.07;2.80;;;;;;;28.13;56.32;100758.28;4902169;29;20392;-58
2023/06/28 04:26:25;;;;;;;4.95;2.80;;;;;;;28.13;55.88;100750.94;4902166;29;20049;-58
2023/06/28 04:28:52;;;;;;;4.00;3.00;;;;;;;28.12;56.25;100754.72;4901969;29;20424;-58
2023/06/28 04:31:19;;;;;;;5.40;2.90;;;;;;;28.13;56.31;100758.28;4902568;29;20052;-58
2023/06/28 04:33:47;;;;;;;4.45;2.63;;;;;;;28.13;56.19;100766.44;4901927;29;20493;-58
2023/06/28 04:36:21;;;;;;;5.18;2.80;;;;;;;28.13;56.13;100769.16;4901972;29;20059;-58
2023/06/28 04:38:55;;;;;;;7.88;2.90;;;;;;;28.12;55.99;100765.59;4901938;29;20052;-58
2023/06/28 04:41:25;;;;;;;3.95;2.70;;;;;;;28.13;56.06;100769.16;4901850;29;20504;-58
2023/06/28 04:43:56;;;;;;;4.10;2.60;;;;;;;28.13;56.32;100771.88;4901731;29;20052;-58
2023/06/28 04:46:28;;;;;;;3.92;2.65;;;;;;;28.14;56.34;100770.84;4901852;29;20048;-58
2023/06/28 04:48:59;;;;;;;3.60;2.42;;;;;;;28.14;56.24;100768.13;4901702;29;20060;-59
2023/06/28 04:51:28;;;;;;;4.38;2.90;;;;;;;28.13;56.14;100766.44;4901632;29;20056;-58
2023/06/28 04:53:55;;;;;;;3.03;1.92;;;;;;;28.13;55.82;100761.00;4901582;29;20055;-58
2023/06/28 04:56:24;;;;;;;4.50;2.58;;;;;;;28.13;56.10;100767.28;4901618;29;20048;-61
2023/06/28 04:58:51;;;;;;;3.97;2.75;;;;;;;28.12;55.95;100762.03;4901242;29;20048;-61
2023/06/28 05:01:19;;;;;;;4.88;2.70;;;;;;;28.12;56.21;100767.47;4931576;29;20049;-61
2023/06/28 05:03:47;;;;;;;4.55;2.85;;;;;;;28.12;56.18;100762.03;4901241;29;20063;-61
2023/06/28 05:06:16;;;;;;;6.03;2.80;;;;;;;28.11;56.41;100755.72;4901205;29;20048;-61
2023/06/28 05:08:43;;;;;;;4.50;2.40;;;;;;;28.09;55.97;100757.81;4900980;29;20052;-61
2023/06/28 05:11:10;;;;;;;5.07;3.13;;;;;;;28.06;55.93;100750.88;4900835;29;20045;-61
2023/06/28 05:13:39;;;;;;;4.60;2.75;;;;;;;28.05;56.01;100749.19;4901152;29;20057;-62
2023/06/28 05:16:06;;;;;;;4.97;2.85;;;;;;;28.05;55.96;100754.63;4900787;29;20056;-61
2023/06/28 05:18:34;;;;;;;5.72;2.80;;;;;;;28.05;56.50;100754.63;4901065;29;20494;-61
2023/06/28 05:21:01;;;;;;;4.45;2.92;;;;;;;28.06;56.54;100763.63;4901004;29;20053;-61
2023/06/28 05:23:28;;;;;;;4.40;2.63;;;;;;;28.09;56.29;100757.81;4901042;29;20052;-61
2023/06/28 05:25:56;;;;;;;4.55;2.67;;;;;;;28.07;56.47;100751.69;4900924;29;20416;-61
2023/06/28 05:28:25;;;;;;;6.05;3.28;;;;;;;28.08;56.41;100756.97;4901006;29;20061;-61
2023/06/28 05:30:52;;;;;;;4.85;3.10;;;;;;;28.10;56.17;100762.22;4900758;29;20044;-61
2023/06/28 05:33:19;;;;;;;4.68;2.95;;;;;;;28.10;56.45;100757.59;4900932;29;20044;-62
2023/06/28 05:35:47;;;;;;;4.47;2.80;;;;;;;28.09;56.35;100745.03;4931258;29;20063;-61
2023/06/28 05:38:14;;;;;;;4.93;2.85;;;;;;;28.12;56.34;100764.75;4900854;29;20049;-62
2023/06/28 05:40:42;;;;;;;6.03;2.60;;;;;;;28.10;56.60;100754.88;4900618;29;20053;-61
2023/06/28 05:43:10;;;;;;;4.32;3.08;;;;;;;28.09;56.31;100758.66;4900697;29;20056;-62
2023/06/28 05:45:37;;;;;;;4.32;2.63;;;;;;;28.10;56.27;100759.50;4900761;29;20500;-61
2023/06/28 05:48:05;;;;;;;4.82;3.15;;;;;;;28.08;56.51;100756.13;4900614;29;20044;-62
2023/06/28 05:50:33;;;;;;;5.35;2.88;;;;;;;28.10;56.33;100765.78;4900621;29;20060;-62
2023/06/28 05:53:00;;;;;;;4.63;2.70;;;;;;;28.09;56.20;100766.81;4900431;29;20366;-62
2023/06/28 05:55:27;;;;;;;3.80;2.63;;;;;;;28.10;56.30;100763.06;4900462;29;20056;-61
2023/06/28 05:57:55;;;;;;;5.28;3.10;;;;;;;28.12;56.60;100771.03;4900426;29;20044;-62
2023/06/28 06:00:22;;;;;;;4.85;3.28;;;;;;;28.10;56.47;100776.66;4900347;29;20413;-62
2023/06/28 06:02:50;;;;;;;4.28;3.25;;;;;;;28.10;56.61;100767.66;4900286;29;20413;-62
2023/06/28 06:05:17;;;;;;;6.25;3.38;;;;;;;28.11;56.34;100772.06;4900430;29;20063;-58
2023/06/28 06:07:44;;;;;;;5.53;2.88;;;;;;;28.12;56.68;100772.94;4900229;29;20048;-58
2023/06/28 06:10:14;;;;;;;4.57;2.95;;;;;;;28.12;56.58;100772.94;4900045;29;20059;-58
2023/06/28 06:12:41;;;;;;;6.40;3.25;;;;;;;28.09;56.43;100777.69;4900116;29;20047;-58
2023/06/28 06:15:09;;;;;;;5.65;3.00;;;;;;;28.09;56.57;100772.25;4899932;29;20055;-58
2023/06/28 06:17:36;;;;;;;4.07;2.97;;;;;;;28.10;56.25;100776.66;4900123;29;20048;-58
2023/06/28 06:20:04;;;;;;;5.47;3.30;;;;;;;28.10;56.31;100776.66;4899985;29;20055;-58
2023/06/28 06:22:32;;;;;;;4.75;2.60;;;;;;;28.10;56.65;100775.81;4899888;29;20047;-58
2023/06/28 06:24:59;;;;;;;5.10;3.38;;;;;;;28.12;56.65;100781.09;4899633;29;20059;-58
2023/06/28 06:27:26;;;;;;;5.28;3.13;;;;;;;28.12;56.65;100783.81;4899813;29;20060;-59
2023/06/28 06:29:54;;;;;;;4.30;2.97;;;;;;;28.12;56.46;100778.38;4899828;29;20080;-58
2023/06/28 06:32:21;;;;;;;3.92;2.88;;;;;;;28.11;56.84;100777.50;4899647;29;20051;-58
2023/06/28 06:34:49;;;;;;;4.60;3.08;;;;;;;28.10;56.43;100779.38;4899763;29;20044;-59
2023/06/28 06:37:16;;;;;;;4.85;2.92;;;;;;;28.12;56.51;100783.81;4899776;29;20044;-58
2023/06/28 06:39:43;;;;;;;4.30;2.55;;;;;;;28.10;56.37;100778.53;4899600;29;20410;-59
2023/06/28 06:42:11;;;;;;;4.25;2.70;;;;;;;28.08;56.69;100778.75;4899148;29;20060;-59
2023/06/28 06:44:40;;;;;;;7.32;3.30;;;;;;;28.07;56.60;100784.34;4899759;29;20044;-61
2023/06/28 06:47:07;;;;;;;3.75;2.88;;;;;;;28.09;56.68;100793.19;4899637;29;20109;-61
2023/06/28 06:49:35;;;;;;;5.13;2.72;;;;;;;28.09;57.04;100794.03;4899500;29;20053;-61
2023/06/28 06:52:03;;;;;;;3.65;2.65;;;;;;;28.07;56.77;100798.81;4899500;29;20049;-61
2023/06/28 06:54:30;;;;;;;5.75;2.88;;;;;;;28.06;56.94;100805.28;4899532;29;20048;-59
2023/06/28 06:56:58;;;;;;;5.95;3.17;;;;;;;27.99;56.95;100807.06;4899435;29;20459;-58
2023/06/28 06:59:26;;;;;;;5.65;3.05;;;;;;;27.90;56.46;100802.78;4899344;29;20396;-59
2023/06/28 07:01:56;;;;;;;4.10;2.67;;;;;;;27.81;56.77;100806.66;4899416;29;20048;-58
2023/06/28 07:04:24;;;;;;;6.72;3.58;;;;;;;27.74;56.74;100803.81;4899264;29;20055;-60
2023/06/28 07:06:52;;;;;;;4.95;3.15;;;;;;;27.61;57.00;100818.06;4899194;29;20508;-58
2023/06/28 07:09:19;;;;;;;3.90;3.10;;;;;;;27.44;57.14;100819.25;4897949;29;20049;-58
2023/06/28 07:11:47;;;;;;;4.90;2.10;;;;;;;27.33;56.85;100815.13;4899049;29;20048;-58
2023/06/28 07:14:14;;;;;;;5.22;3.00;;;;;;;27.23;57.36;100821.88;4899228;29;20055;-58
2023/06/28 07:16:45;;;;;;;3.33;2.35;;;;;;;27.18;57.50;100827.81;4898754;29;20056;-58
2023/06/28 07:19:13;;;;;;;4.43;2.67;;;;;;;27.16;57.64;100827.19;4899014;29;20508;-58
2023/06/28 07:21:43;;;;;;;3.97;2.50;;;;;;;27.14;57.63;100834.66;4898803;29;20417;-58
2023/06/28 07:24:11;;;;;;;4.80;2.85;;;;;;;27.14;57.47;100836.53;4898880;29;20075;-58
2023/06/28 07:26:38;;;;;;;5.72;3.00;;;;;;;27.15;57.57;100839.09;4899012;29;20183;-61
2023/06/28 07:29:05;;;;;;;5.35;2.53;;;;;;;27.15;57.54;100841.81;4898831;29;20436;-61
2023/06/28 07:31:33;;;;;;;3.90;2.70;;;;;;;27.10;57.89;100846.91;4898806;29;20055;-61
2023/06/28 07:34:04;;;;;;;4.05;2.63;;;;;;;27.05;57.77;100844.72;4897257;29;20044;-58
2023/06/28 07:36:32;;;;;;;4.63;2.40;;;;;;;26.99;57.84;100845.47;4910260;29;20059;-61
2023/06/28 07:38:59;;;;;;;5.13;2.22;;;;;;;26.97;57.97;100850.22;4916888;29;20048;-61
2023/06/28 07:41:27;;;;;;;4.20;2.72;;;;;;;26.93;57.66;100851.63;4899017;29;20045;-61
2023/06/28 07:43:54;;;;;;;5.00;2.80;;;;;;;26.91;57.91;100859.13;4897394;29;20040;-62
2023/06/28 07:46:21;;;;;;;4.22;2.00;;;;;;;26.87;57.60;100855.91;4896633;29;20057;-60
2023/06/28 07:48:51;;;;;;;5.07;2.60;;;;;;;26.87;57.61;100863.22;4897559;29;20056;-61
2023/06/28 07:51:18;;;;;;;3.53;2.17;;;;;;;26.86;57.83;100859.66;4898239;29;20052;-61
2023/06/28 07:53:46;;;;;;;5.05;2.42;;;;;;;26.88;57.91;100867.63;4916866;29;20044;-62
2023/06/28 07:56:13;;;;;;;5.20;3.60;;;;;;;26.89;57.45;100872.03;4917133;29;20044;-61
2023/06/28 07:58:41;;;;;;;3.97;2.40;;;;;;;26.90;57.60;100872.88;4908438;29;20048;-63
2023/06/28 08:01:08;;;;;;;4.90;2.42;;;;;;;26.90;57.27;100871.03;4897870;29;20052;-64
2023/06/28 08:03:35;;;;;;;4.22;2.65;;;;;;;26.91;57.36;100869.16;4897772;29;20055;-63
2023/06/28 08:06:03;;;;;;;4.25;2.60;;;;;;;26.93;57.53;100878.78;4897927;29;20053;-62
2023/06/28 08:08:31;;;;;;;3.35;2.08;;;;;;;26.93;57.11;100872.50;4898180;29;20041;-63
2023/06/28 08:10:58;;;;;;;3.97;3.13;;;;;;;26.94;57.28;100883.22;4897868;29;20052;-62
2023/06/28 08:13:25;;;;;;;5.13;2.72;;;;;;;26.88;57.44;100876.63;4897835;29;20053;-62
2023/06/28 08:15:53;;;;;;;3.72;2.20;;;;;;;26.88;57.33;100875.78;4898010;29;20059;-58
2023/06/28 08:18:20;;;;;;;4.80;2.35;;;;;;;26.92;57.33;100890.69;4897646;29;20048;-58
2023/06/28 08:20:47;;;;;;;3.85;2.50;;;;;;;26.94;57.31;100880.50;4897709;29;20508;-58
2023/06/28 08:23:16;;;;;;;3.63;2.30;;;;;;;26.96;57.20;100877.59;4897775;29;20036;-58
2023/06/28 08:25:43;;;;;;;3.58;2.13;;;;;;;26.94;57.00;100875.06;4898273;29;20053;-58
2023/06/28 08:28:11;;;;;;;4.15;2.47;;;;;;;26.95;56.85;100886.78;4897643;29;20388;-58
2023/06/28 08:30:38;;;;;;;3.55;2.55;;;;;;;26.93;56.96;100880.66;4897693;29;20408;-54
2023/06/28 08:33:06;;;;;;;3.75;2.50;;;;;;;26.86;57.28;100884.13;4897853;29;20044;-57
2023/06/28 08:35:33;;;;;;;4.03;2.78;;;;;;;26.84;57.11;100879.88;4897573;29;20477;-58
2023/06/28 08:38:01;;;;;;;4.72;3.42;;;;;;;26.79;57.32;100882.28;4897747;29;20059;-58
2023/06/28 08:40:29;;;;;;;5.18;3.28;;;;;;;26.77;57.44;100882.44;4898039;29;20493;-58
2023/06/28 08:43:01;;;;;;;3.75;2.80;;;;;;;26.80;57.38;100890.25;4897662;29;20056;-55
2023/06/28 08:45:34;;;;;;;4.28;2.90;;;;;;;26.80;57.41;100894.84;4896525;29;20402;-61
2023/06/28 08:48:03;;;;;;;3.83;2.70;;;;;;;26.83;57.23;100883.63;4897525;29;20496;-62
2023/06/28 08:50:47;;;;;;;3.97;2.85;;;;;;;26.86;57.31;100894.97;4897437;29;20056;-62
2023/06/28 08:53:19;;;;;;;4.65;3.30;;;;;;;26.91;57.14;100894.44;4897555;29;20045;-62
2023/06/28 08:55:48;;;;;;;5.85;3.47;;;;;;;26.96;57.10;100900.16;4898019;29;20048;-62
2023/06/28 08:58:16;;;;;;;6.90;3.50;;;;;;;26.94;57.09;100902.22;4897537;29;20048;-61
2023/06/28 09:00:45;;;;;;;4.80;3.05;;;;;;;26.91;56.98;100902.59;4897365;29;20052;-57
2023/06/28 09:03:15;;;;;;;4.90;3.03;;;;;;;26.82;57.68;100896.38;4897475;29;20059;-57
2023/06/28 09:05:44;;;;;;;4.63;3.63;;;;;;;26.80;57.89;100900.28;4898421;29;20056;-64
2023/06/28 09:08:12;;;;;;;4.88;3.85;;;;;;;26.70;58.11;100899.66;4909723;29;20040;-63
2023/06/28 09:10:40;;;;;;;5.40;4.13;;;;;;;26.67;58.36;100894.59;4919964;29;20082;-64
2023/06/28 09:13:09;;;;;;;6.40;3.40;;;;;;;26.70;58.25;100896.94;4919414;29;20051;-63
2023/06/28 09:15:36;;;;;;;4.95;3.78;;;;;;;26.71;58.47;100901.34;4919440;29;20056;-63
2023/06/28 09:18:04;;;;;;;6.47;4.05;;;;;;;26.74;58.44;100900.97;4919897;29;20400;-63
2023/06/28 09:20:32;;;;;;;5.88;4.10;;;;;;;26.70;58.77;100899.66;4919517;29;20055;-64
2023/06/28 09:23:00;;;;;;;7.53;4.22;;;;;;;26.75;58.54;100905.41;4919565;29;20396;-63
2023/06/28 09:25:30;;;;;;;6.60;4.35;;;;;;;26.74;58.80;100910.00;4919313;29;20059;-63
2023/06/28 09:27:59;;;;;;;5.22;4.22;;;;;;;26.72;58.83;100903.03;4917772;29;20058;-63
2023/06/28 09:30:52;;;;;;;5.45;3.97;;;;;;;26.66;59.41;100904.63;4907089;29;20055;-63
2023/06/28 09:33:20;;;;;;;7.78;5.40;;;;;;;26.57;59.39;100911.09;4900397;29;20071;-63
2023/06/28 09:35:51;;;;;;;5.63;4.65;;;;;;;26.52;59.74;100910.78;4900544;29;20056;-58
2023/06/28 09:38:19;;;;;;;5.43;4.53;;;;;;;26.48;59.96;100906.72;4900844;29;20059;-58
2023/06/28 09:40:59;;;;;;;7.32;4.93;;;;;;;26.50;59.93;100910.97;4900397;29;20060;-58
2023/06/28 09:43:34;;;;;;;7.70;4.65;;;;;;;26.52;60.18;100903.47;4900115;29;20048;-58
2023/06/28 09:46:16;;;;;;;4.85;3.95;;;;;;;26.60;59.99;100905.31;4899831;29;20047;-58
2023/06/28 09:48:52;;;;;;;5.50;4.70;;;;;;;26.66;59.66;100901.03;4899606;29;20056;-58
2023/06/28 09:51:20;;;;;;;9.43;5.45;;;;;;;26.68;59.78;100904.44;4900310;29;20048;-58
2023/06/28 09:53:52;;;;;;;7.65;5.40;;;;;;;26.67;59.84;100908.16;4900038;29;20047;-58
2023/06/28 09:56:22;;;;;;;9.40;6.68;;;;;;;26.61;60.00;100912.44;4900613;29;20052;-63
2023/06/28 09:58:49;;;;;;;6.55;5.43;;;;;;;26.56;59.82;100909.41;4900052;29;20055;-63
2023/06/28 10:01:17;;;;;;;8.55;4.93;;;;;;;26.56;59.81;100902.09;4899927;29;20095;-63
2023/06/28 10:03:44;;;;;;;6.47;5.47;;;;;;;26.54;60.09;100906.03;4899893;29;20052;-63
2023/06/28 10:06:14;;;;;;;8.00;5.43;;;;;;;26.59;60.12;100915.34;4900387;29;20048;-58
2023/06/28 10:08:42;;;;;;;7.50;4.97;;;;;;;26.66;60.10;100914.59;4899197;29;20515;-58
2023/06/28 10:11:15;;;;;;;6.85;5.55;;;;;;;26.71;60.13;100912.22;4899650;29;20063;-58
2023/06/28 10:13:48;;;;;;;7.68;5.65;;;;;;;26.73;59.98;100912.88;4899180;29;20043;-58
2023/06/28 10:16:18;;;;;;;6.82;5.10;;;;;;;26.77;60.00;100912.34;4899216;29;20417;-58
2023/06/28 10:18:46;;;;;;;9.65;6.18;;;;;;;26.80;59.81;100917.41;4898645;29;20055;-58
2023/06/28 10:21:14;;;;;;;6.90;5.53;;;;;;;26.83;59.64;100917.06;4899434;29;20045;-58
2023/06/28 10:23:43;;;;;;;7.28;5.55;;;;;;;26.84;59.97;100917.91;4899408;29;20060;-57
2023/06/28 10:26:12;;;;;;;10.68;6.60;;;;;;;26.75;60.08;100914.41;4899781;29;20055;-58
2023/06/28 10:28:41;;;;;;;7.30;6.22;;;;;;;26.65;60.19;100918.34;4929630;29;20064;-58
2023/06/28 10:31:08;;;;;;;9.50;6.07;;;;;;;26.63;60.41;100918.53;4899551;29;20051;-58
2023/06/28 10:33:36;;;;;;;7.50;6.10;;;;;;;26.68;60.16;100918.00;4899746;29;20048;-58
2023/06/28 10:36:04;;;;;;;7.68;6.00;;;;;;;26.74;60.05;100920.00;4899466;29;20063;-63
2023/06/28 10:38:33;;;;;;;6.90;5.88;;;;;;;26.79;60.11;100921.16;4899140;29;20412;-62
2023/06/28 10:41:01;;;;;;;7.97;6.20;;;;;;;26.82;60.18;100930.84;4899524;29;20397;-62
2023/06/28 10:43:30;;;;;;;6.88;6.18;;;;;;;26.82;60.21;100925.41;4899127;29;20059;-62
2023/06/28 10:45:57;;;;;;;7.55;6.22;;;;;;;26.83;60.46;100927.09;4899287;29;20053;-58
2023/06/28 10:48:27;;;;;;;10.00;6.78;;;;;;;26.86;60.23;100924.03;4895672;29;20401;-58
2023/06/28 10:51:00;;;;;;;9.40;6.15;;;;;;;26.84;60.26;100917.91;4899022;29;20056;-57
2023/06/28 10:53:28;;;;;;;6.57;5.45;;;;;;;26.88;60.04;100919.25;4899012;29;20044;-56
2023/06/28 10:56:11;;;;;;;11.05;6.40;;;;;;;26.93;59.91;100915.97;4899184;29;20044;-55
2023/06/28 10:58:40;;;;;;;9.48;6.80;;;;;;;26.96;59.65;100921.91;4898892;29;20064;-59
2023/06/28 11:01:10;;;;;;;9.75;6.47;;;;;;;26.98;59.67;100910.84;4899048;29;20052;-59
2023/06/28 11:03:45;;;;;;;7.68;5.60;;;;;;;27.00;59.48;100911.53;4898765;29;20524;-59
2023/06/28 11:06:13;;;;;;;11.00;7.20;;;;;;;27.01;59.88;100913.19;4898786;29;20412;-59
2023/06/28 11:08:43;;;;;;;8.85;7.18;;;;;;;27.01;59.66;100913.19;4899042;29;20616;-59
2023/06/28 11:11:43;;;;;;;8.70;6.70;;;;;;;26.99;59.58;100907.13;4898659;29;20052;-59
2023/06/28 11:14:37;;;;;;;10.70;7.20;;;;;;;27.01;59.72;100905.06;4892449;29;20060;-58
2023/06/28 11:17:10;;;;;;;9.48;6.47;;;;;;;27.01;59.71;100903.19;4898673;29;20386;-58
2023/06/28 11:19:39;;;;;;;9.63;7.22;;;;;;;27.00;59.69;100906.94;4898555;29;20055;-58
2023/06/28 11:22:07;;;;;;;11.38;7.60;;;;;;;27.02;59.97;100904.88;4898533;29;20045;-59
2023/06/28 11:24:37;;;;;;;8.60;6.50;;;;;;;27.06;60.23;100906.22;4898946;29;20044;-58
2023/06/28 11:27:17;;;;;;;9.10;7.07;;;;;;;27.08;60.24;100900.59;4898485;29;20044;-58
2023/06/28 11:29:57;;;;;;;9.45;7.20;;;;;;;27.11;60.22;100897.56;4897897;29;20059;-60
2023/06/28 11:32:31;;;;;;;8.32;6.72;;;;;;;27.08;60.14;100898.72;4898456;29;20075;-59